createdAt,value
2017-11-24T00:01:16.571Z,7.60
2017-11-24T00:03:44.135Z,7.33
2017-11-24T00:06:11.731Z,11.80
2017-11-24T00:08:39.335Z,10.70
2017-11-24T00:11:07.181Z,14.97
2017-11-24T00:13:34.831Z,13.23
2017-11-24T00:16:02.452Z,10.13
2017-11-24T00:18:30.086Z,12.47
2017-11-24T00:20:57.700Z,10.50
2017-11-24T00:23:25.278Z,15.33
2017-11-24T00:25:52.857Z,15.30
2017-11-24T00:28:20.452Z,18.00
2017-11-24T00:30:48.041Z,14.57
2017-11-24T00:33:15.601Z,9.50
2017-11-24T00:35:43.196Z,10.17
2017-11-24T00:38:10.830Z,13.07
2017-11-24T00:40:38.423Z,10.17
2017-11-24T00:43:06.108Z,13.80
2017-11-24T00:45:34.108Z,15.60
2017-11-24T00:48:01.667Z,17.90
2017-11-24T00:50:29.231Z,16.07
2017-11-24T00:52:56.866Z,15.10
2017-11-24T00:55:24.464Z,14.47
2017-11-24T00:57:52.030Z,13.03
2017-11-24T01:00:19.587Z,11.47
2017-11-24T01:02:47.157Z,15.60
2017-11-24T01:05:14.708Z,15.47
2017-11-24T01:07:42.278Z,17.20
2017-11-24T01:10:09.895Z,12.47
2017-11-24T01:12:37.451Z,14.60
2017-11-24T01:15:05.138Z,18.67
2017-11-24T01:17:32.752Z,23.70
2017-11-24T01:20:00.315Z,19.10
2017-11-24T01:22:27.878Z,20.80
2017-11-24T01:24:55.474Z,17.60
2017-11-24T01:27:23.738Z,17.50
2017-11-24T01:29:51.446Z,17.43
2017-11-24T01:32:19.047Z,18.23
2017-11-24T01:34:46.614Z,18.60
2017-11-24T01:37:14.379Z,14.77
2017-11-24T01:39:42.022Z,12.13
2017-11-24T01:42:09.772Z,15.87
2017-11-24T01:44:37.339Z,12.33
2017-11-24T01:47:05.131Z,17.53
2017-11-24T01:49:32.720Z,14.90
2017-11-24T01:52:00.323Z,11.73
2017-11-24T01:54:27.924Z,13.27
2017-11-24T01:56:55.532Z,14.80
2017-11-24T01:59:23.107Z,15.43
2017-11-24T02:01:50.724Z,7.73
2017-11-24T02:04:18.300Z,9.20
2017-11-24T02:06:45.867Z,6.63
2017-11-24T02:09:13.583Z,7.23
2017-11-24T02:11:41.130Z,9.80
2017-11-24T02:14:08.737Z,8.53
2017-11-24T02:16:36.459Z,6.73
2017-11-24T02:19:04.105Z,5.70
2017-11-24T02:21:31.740Z,11.17
2017-11-24T02:23:59.313Z,53.13
2017-11-24T02:26:26.884Z,8.87
2017-11-24T02:28:54.479Z,9.33
2017-11-24T02:31:22.891Z,6.50
2017-11-24T02:33:50.450Z,5.80
2017-11-24T02:36:17.986Z,6.07
2017-11-24T02:38:45.606Z,15.80
2017-11-24T02:41:13.324Z,10.63
2017-11-24T02:43:41.043Z,6.97
2017-11-24T02:46:08.646Z,5.27
2017-11-24T02:48:36.227Z,10.63
2017-11-24T02:51:03.892Z,7.13
2017-11-24T02:53:31.915Z,7.50
2017-11-24T02:55:59.828Z,4.10
2017-11-24T02:58:27.407Z,3.60
2017-11-24T03:00:54.970Z,4.70
2017-11-24T03:03:22.809Z,3.80
2017-11-24T03:05:50.350Z,4.83
2017-11-24T03:08:17.934Z,8.23
2017-11-24T03:10:45.532Z,6.03
2017-11-24T03:13:13.537Z,9.70
2017-11-24T03:15:41.140Z,4.33
2017-11-24T03:18:08.766Z,7.20
2017-11-24T03:20:36.312Z,9.63
2017-11-24T03:23:06.097Z,8.93
2017-11-24T03:25:33.720Z,5.10
2017-11-24T03:28:02.061Z,10.70
2017-11-24T03:30:29.652Z,69.03
2017-11-24T03:32:57.222Z,22.93
2017-11-24T03:35:24.815Z,20.03
2017-11-24T03:37:52.396Z,18.50
2017-11-24T03:40:19.987Z,13.53
2017-11-24T03:42:47.556Z,12.80
2017-11-24T03:45:15.433Z,12.77
2017-11-24T03:47:43.024Z,19.47
2017-11-24T03:50:10.807Z,13.37
2017-11-24T03:52:38.607Z,10.80
2017-11-24T03:55:06.181Z,11.30
2017-11-24T03:57:33.840Z,13.13
2017-11-24T04:00:01.551Z,7.40
2017-11-24T04:02:29.142Z,11.40
2017-11-24T04:04:56.699Z,8.23
2017-11-24T04:07:24.266Z,9.60
2017-11-24T04:09:51.853Z,9.50
2017-11-24T04:12:20.162Z,9.43
2017-11-24T04:14:47.736Z,8.50
2017-11-24T04:17:15.333Z,14.73
2017-11-24T04:19:42.963Z,9.90
2017-11-24T04:22:10.603Z,9.77
2017-11-24T04:24:38.188Z,11.27
2017-11-24T04:27:06.132Z,10.60
2017-11-24T04:29:33.682Z,10.17
2017-11-24T04:32:01.240Z,16.93
2017-11-24T04:34:28.864Z,9.73
2017-11-24T04:36:56.396Z,6.83
2017-11-24T04:39:23.974Z,12.10
2017-11-24T04:41:51.579Z,6.27
2017-11-24T04:44:19.245Z,18.47
2017-11-24T04:46:46.896Z,10.03
2017-11-24T04:49:14.503Z,9.57
2017-11-24T04:51:42.089Z,9.73
2017-11-24T04:54:09.698Z,10.47
2017-11-24T04:56:37.302Z,6.90
2017-11-24T04:59:04.857Z,5.83
2017-11-24T05:01:32.427Z,7.83
2017-11-24T05:04:00.038Z,8.43
2017-11-24T05:06:27.618Z,6.83
2017-11-24T05:08:55.182Z,17.13
2017-11-24T05:11:22.774Z,7.93
2017-11-24T05:13:50.385Z,8.73
2017-11-24T05:16:17.952Z,9.57
2017-11-24T05:18:45.584Z,9.73
2017-11-24T05:21:13.514Z,13.00
2017-11-24T05:23:41.126Z,15.03
2017-11-24T05:26:08.768Z,15.40
2017-11-24T05:28:36.340Z,15.00
2017-11-24T05:31:03.955Z,19.80
2017-11-24T05:33:31.531Z,25.90
2017-11-24T05:35:59.111Z,43.60
2017-11-24T05:38:26.672Z,26.90
2017-11-24T05:40:54.265Z,41.40
2017-11-24T05:45:54.631Z,43.43
2017-11-24T05:48:22.231Z,45.20
2017-11-24T05:50:49.808Z,42.20
2017-11-24T05:53:18.102Z,37.50
2017-11-24T05:55:45.690Z,29.43
2017-11-24T05:58:13.313Z,16.47
2017-11-24T06:00:40.962Z,17.10
2017-11-24T06:03:08.692Z,13.77
2017-11-24T06:05:37.174Z,21.77
2017-11-24T06:08:04.778Z,15.53
2017-11-24T06:10:32.359Z,19.37
2017-11-24T06:12:59.937Z,22.43
2017-11-24T06:15:27.542Z,32.63
2017-11-24T06:17:55.154Z,23.83
2017-11-24T06:20:22.756Z,31.93
2017-11-24T06:22:50.347Z,29.70
2017-11-24T06:25:17.955Z,25.53
2017-11-24T06:27:45.566Z,32.57
2017-11-24T06:30:13.204Z,27.80
2017-11-24T06:32:40.791Z,19.00
2017-11-24T06:35:08.386Z,16.60
2017-11-24T06:37:35.984Z,20.20
2017-11-24T06:40:03.588Z,17.70
2017-11-24T06:42:31.209Z,22.00
2017-11-24T06:44:58.797Z,19.37
2017-11-24T06:47:26.640Z,18.83
2017-11-24T06:49:54.271Z,13.23
2017-11-24T06:52:22.146Z,14.10
2017-11-24T06:54:49.736Z,19.97
2017-11-24T06:57:17.429Z,13.47
2017-11-24T06:59:45.181Z,15.27
2017-11-24T07:02:14.139Z,15.30
2017-11-24T07:04:41.803Z,25.13
2017-11-24T07:07:09.532Z,18.80
2017-11-24T07:09:37.191Z,18.20
2017-11-24T07:12:05.842Z,21.00
2017-11-24T07:14:33.423Z,21.50
2017-11-24T07:17:01.054Z,21.73
2017-11-24T07:19:28.774Z,28.20
2017-11-24T07:21:56.725Z,22.10
2017-11-24T07:24:24.320Z,26.37
2017-11-24T07:26:52.004Z,24.00
2017-11-24T07:29:19.600Z,23.27
2017-11-24T07:31:47.512Z,25.33
2017-11-24T07:34:15.207Z,27.30
2017-11-24T07:36:42.814Z,28.43
2017-11-24T07:39:11.395Z,21.57
2017-11-24T07:41:39.019Z,24.90
2017-11-24T07:44:06.606Z,22.63
2017-11-24T07:46:34.202Z,22.97
2017-11-24T07:49:01.797Z,19.07
2017-11-24T07:51:29.351Z,17.40
2017-11-24T07:53:56.939Z,16.93
2017-11-24T07:56:24.545Z,21.20
2017-11-24T07:58:52.121Z,14.10
2017-11-24T08:01:19.700Z,20.97
2017-11-24T08:03:47.352Z,22.47
2017-11-24T08:06:15.144Z,17.23
2017-11-24T08:08:42.715Z,15.30
2017-11-24T08:11:10.465Z,15.77
2017-11-24T08:13:38.049Z,15.83
2017-11-24T08:16:05.654Z,24.63
2017-11-24T08:18:33.311Z,12.77
2017-11-24T08:21:00.942Z,9.13
2017-11-24T08:23:28.695Z,14.50
2017-11-24T08:25:56.381Z,13.90
2017-11-24T08:28:24.867Z,13.87
2017-11-24T08:30:52.443Z,9.77
2017-11-24T08:33:20.181Z,7.07
2017-11-24T08:35:47.847Z,10.07
2017-11-24T08:38:15.532Z,8.33
2017-11-24T08:40:43.178Z,8.53
2017-11-24T08:43:11.157Z,18.30
2017-11-24T08:45:38.969Z,12.17
2017-11-24T08:48:12.063Z,13.50
2017-11-24T08:50:39.635Z,6.50
2017-11-24T08:53:07.396Z,6.40
2017-11-24T08:55:35.153Z,10.83
2017-11-24T08:58:02.747Z,9.30
2017-11-24T09:00:30.324Z,5.00
2017-11-24T09:02:57.888Z,5.70
2017-11-24T09:05:25.645Z,8.53
2017-11-24T09:07:53.267Z,7.43
2017-11-24T09:10:20.830Z,7.97
2017-11-24T09:12:48.433Z,5.90
2017-11-24T09:15:16.021Z,4.70
2017-11-24T09:17:43.598Z,6.50
2017-11-24T09:20:11.216Z,11.73
2017-11-24T09:22:39.469Z,6.10
2017-11-24T09:25:07.126Z,5.20
2017-11-24T09:27:34.820Z,5.27
2017-11-24T09:30:02.410Z,6.00
2017-11-24T09:32:30.028Z,5.43
2017-11-24T09:34:57.579Z,9.70
2017-11-24T09:37:25.115Z,7.80
2017-11-24T09:39:52.705Z,5.93
2017-11-24T09:42:20.277Z,4.33
2017-11-24T09:44:47.869Z,7.80
2017-11-24T09:47:15.456Z,9.90
2017-11-24T09:49:43.035Z,10.23
2017-11-24T09:52:10.696Z,7.00
2017-11-24T09:54:38.314Z,7.37
2017-11-24T09:57:05.941Z,7.53
2017-11-24T09:59:33.541Z,12.83
2017-11-24T10:02:01.113Z,11.90
2017-11-24T10:04:28.660Z,9.53
2017-11-24T10:06:56.220Z,11.30
2017-11-24T10:09:23.842Z,11.43
2017-11-24T10:11:51.617Z,13.97
2017-11-24T10:14:19.189Z,8.30
2017-11-24T10:16:46.756Z,9.40
2017-11-24T10:19:14.393Z,8.53
2017-11-24T10:21:47.438Z,7.80
2017-11-24T10:24:15.142Z,10.57
2017-11-24T10:26:42.710Z,9.03
2017-11-24T10:29:10.504Z,9.10
2017-11-24T10:31:38.102Z,7.43
2017-11-24T10:34:05.665Z,7.47
2017-11-24T10:36:33.214Z,11.10
2017-11-24T10:39:00.841Z,8.57
2017-11-24T10:41:28.391Z,9.40
2017-11-24T10:43:55.962Z,7.97
2017-11-24T10:46:23.646Z,7.00
2017-11-24T10:48:51.185Z,9.67
2017-11-24T10:51:18.724Z,8.97
2017-11-24T10:53:46.357Z,7.57
2017-11-24T10:56:13.976Z,11.60
2017-11-24T10:58:41.552Z,7.30
2017-11-24T11:01:09.201Z,12.73
2017-11-24T11:03:36.738Z,10.37
2017-11-24T11:06:04.293Z,13.83
2017-11-24T11:08:31.844Z,11.53
2017-11-24T11:10:59.427Z,9.47
2017-11-24T11:13:27.006Z,8.57
2017-11-24T11:15:54.607Z,9.07
2017-11-24T11:18:22.133Z,7.60
2017-11-24T11:20:49.673Z,7.20
2017-11-24T11:23:17.222Z,7.67
2017-11-24T11:25:44.789Z,7.30
2017-11-24T11:28:22.843Z,14.13
2017-11-24T11:30:50.405Z,7.03
2017-11-24T11:33:18.007Z,7.13
2017-11-24T11:35:45.574Z,8.17
2017-11-24T11:38:13.160Z,9.57
2017-11-24T11:40:41.008Z,10.47
2017-11-24T11:43:08.580Z,11.40
2017-11-24T11:45:36.830Z,7.87
2017-11-24T11:48:04.384Z,7.77
2017-11-24T11:50:31.944Z,12.70
2017-11-24T11:52:59.545Z,7.10
2017-11-24T11:55:27.133Z,7.43
2017-11-24T11:57:54.701Z,10.07
2017-11-24T12:00:22.272Z,8.40
2017-11-24T12:02:49.867Z,8.30
2017-11-24T12:05:17.390Z,8.37
2017-11-24T12:07:44.926Z,7.93
2017-11-24T12:10:12.659Z,9.43
2017-11-24T12:12:40.190Z,11.17
2017-11-24T12:15:07.834Z,10.93
2017-11-24T12:17:35.446Z,11.10
2017-11-24T12:20:03.011Z,13.73
2017-11-24T12:22:30.558Z,14.63
2017-11-24T12:24:58.132Z,15.53
2017-11-24T12:27:25.678Z,9.10
2017-11-24T12:29:53.257Z,7.80
2017-11-24T12:32:20.875Z,9.10
2017-11-24T12:34:48.457Z,8.30
2017-11-24T12:37:16.022Z,9.73
2017-11-24T12:39:43.587Z,8.50
2017-11-24T12:42:11.145Z,11.37
2017-11-24T12:44:38.692Z,12.60
2017-11-24T12:47:06.326Z,8.53
2017-11-24T12:49:33.885Z,9.20
2017-11-24T12:52:01.452Z,11.00
2017-11-24T12:54:29.030Z,17.43
2017-11-24T12:56:56.579Z,10.27
2017-11-24T12:59:24.182Z,19.07
2017-11-24T13:01:51.749Z,11.57
2017-11-24T13:04:19.304Z,14.60
2017-11-24T13:06:46.889Z,12.70
2017-11-24T13:09:14.474Z,13.20
2017-11-24T13:11:42.027Z,18.60
2017-11-24T13:14:09.587Z,10.03
2017-11-24T13:16:37.149Z,13.23
2017-11-24T13:19:04.699Z,12.40
2017-11-24T13:21:32.307Z,13.30
2017-11-24T13:23:59.850Z,15.50
2017-11-24T13:26:27.386Z,13.63
2017-11-24T13:28:54.945Z,17.00
2017-11-24T13:31:26.155Z,16.63
2017-11-24T13:33:53.699Z,17.80
2017-11-24T13:36:21.248Z,14.33
2017-11-24T13:38:48.810Z,14.40
2017-11-24T13:41:16.350Z,19.47
2017-11-24T13:43:43.881Z,15.43
2017-11-24T13:46:11.492Z,15.40
2017-11-24T13:48:39.052Z,17.17
2017-11-24T13:51:06.639Z,17.27
2017-11-24T13:53:34.209Z,18.50
2017-11-24T13:56:01.740Z,14.50
2017-11-24T13:58:29.327Z,13.77
2017-11-24T14:00:56.954Z,17.57
2017-11-24T14:03:24.520Z,13.17
2017-11-24T14:05:52.116Z,15.27
2017-11-24T14:08:19.748Z,13.73
2017-11-24T14:10:47.278Z,14.83
2017-11-24T14:13:14.829Z,17.30
2017-11-24T14:15:42.423Z,17.40
2017-11-24T14:18:09.960Z,16.53
2017-11-24T14:20:37.526Z,79.57
2017-11-24T14:23:05.134Z,21.50
2017-11-24T14:25:32.679Z,22.00
2017-11-24T14:28:00.256Z,17.37
2017-11-24T14:30:27.916Z,28.87
2017-11-24T14:32:55.473Z,18.90
2017-11-24T14:35:23.053Z,14.43
2017-11-24T14:37:50.626Z,17.23
2017-11-24T14:40:18.169Z,32.47
2017-11-24T14:42:45.698Z,23.63
2017-11-24T14:45:13.254Z,18.20
2017-11-24T14:47:40.810Z,19.37
2017-11-24T14:50:08.342Z,25.47
2017-11-24T14:52:35.969Z,36.13
2017-11-24T14:55:03.524Z,19.87
2017-11-24T14:57:31.072Z,33.43
2017-11-24T14:59:58.649Z,21.50
2017-11-24T15:02:26.187Z,28.93
2017-11-24T15:04:53.755Z,72.00
2017-11-24T15:07:21.344Z,36.13
2017-11-24T15:09:48.892Z,40.10
2017-11-24T15:12:16.637Z,35.07
2017-11-24T15:14:44.206Z,35.80
2017-11-24T15:17:12.192Z,30.00
2017-11-24T15:19:40.128Z,45.53
2017-11-24T15:22:08.311Z,46.33
2017-11-24T15:24:35.882Z,49.97
2017-11-24T15:27:03.531Z,56.07
2017-11-24T15:29:31.110Z,34.90
2017-11-24T15:31:58.669Z,26.37
2017-11-24T15:34:26.243Z,32.27
2017-11-24T15:36:53.838Z,45.13
2017-11-24T15:39:21.422Z,47.37
2017-11-24T15:41:49.067Z,47.73
2017-11-24T15:44:16.653Z,44.90
2017-11-24T15:46:44.243Z,44.33
2017-11-24T15:49:12.016Z,36.57
2017-11-24T15:51:39.772Z,44.70
2017-11-24T15:54:07.360Z,61.57
2017-11-24T15:56:35.180Z,41.57
2017-11-24T15:59:02.916Z,43.67
2017-11-24T16:01:30.642Z,50.43
2017-11-24T16:04:00.598Z,49.80
2017-11-24T16:06:28.186Z,47.20
2017-11-24T16:08:55.755Z,45.70
2017-11-24T16:11:23.356Z,47.97
2017-11-24T16:13:50.928Z,53.23
2017-11-24T16:16:18.522Z,41.57
2017-11-24T16:18:46.115Z,42.20
2017-11-24T16:21:13.782Z,40.03
2017-11-24T16:23:41.343Z,38.83
2017-11-24T16:26:08.925Z,40.23
2017-11-24T16:28:36.514Z,32.50
2017-11-24T16:31:04.099Z,37.07
2017-11-24T16:33:32.426Z,41.93
2017-11-24T16:36:00.057Z,32.60
2017-11-24T16:38:27.617Z,36.73
2017-11-24T16:40:55.161Z,32.63
2017-11-24T16:43:24.236Z,30.27
2017-11-24T16:45:51.917Z,32.10
2017-11-24T16:48:19.511Z,32.70
2017-11-24T16:50:47.123Z,36.53
2017-11-24T16:53:14.673Z,39.07
2017-11-24T16:55:42.275Z,43.40
2017-11-24T16:58:09.893Z,36.13
2017-11-24T17:00:37.464Z,40.67
2017-11-24T17:03:05.209Z,41.80
2017-11-24T17:05:32.797Z,33.57
2017-11-24T17:08:00.439Z,34.33
2017-11-24T17:10:28.035Z,34.90
2017-11-24T17:12:56.691Z,31.53
2017-11-24T17:15:24.375Z,37.00
2017-11-24T17:17:51.991Z,49.13
2017-11-24T17:20:19.591Z,43.40
2017-11-24T17:22:47.553Z,35.60
2017-11-24T17:25:15.201Z,35.43
2017-11-24T17:27:42.821Z,30.27
2017-11-24T17:30:11.453Z,30.00
2017-11-24T17:32:39.079Z,45.83
2017-11-24T17:35:06.645Z,50.27
2017-11-24T17:37:34.260Z,73.00
2017-11-24T17:40:01.853Z,73.63
2017-11-24T17:42:29.487Z,61.83
2017-11-24T17:44:57.240Z,56.40
2017-11-24T17:47:24.910Z,56.40
2017-11-24T17:49:52.484Z,55.80
2017-11-24T17:52:20.077Z,47.20
2017-11-24T17:54:47.625Z,59.53
2017-11-24T17:57:15.176Z,56.13
2017-11-24T17:59:42.786Z,63.27
2017-11-24T18:02:14.287Z,58.77
2017-11-24T18:04:41.843Z,54.90
2017-11-24T18:07:09.858Z,57.27
2017-11-24T18:09:38.108Z,50.00
2017-11-24T18:12:05.696Z,52.17
2017-11-24T18:14:33.333Z,44.83
2017-11-24T18:17:00.906Z,49.10
2017-11-24T18:19:28.524Z,43.37
2017-11-24T18:21:56.321Z,45.20
2017-11-24T18:24:23.882Z,56.40
2017-11-24T18:26:51.496Z,95.07
2017-11-24T18:29:19.126Z,83.20
2017-11-24T18:31:46.760Z,86.40
2017-11-24T18:34:14.356Z,61.10
2017-11-24T18:36:42.000Z,90.03
2017-11-24T18:39:09.769Z,75.43
2017-11-24T18:41:37.430Z,64.60
2017-11-24T18:44:05.029Z,54.40
2017-11-24T18:46:32.636Z,58.97
2017-11-24T18:49:00.218Z,69.90
2017-11-24T18:51:27.857Z,71.57
2017-11-24T18:53:55.456Z,64.30
2017-11-24T18:56:23.117Z,62.33
2017-11-24T18:58:50.771Z,55.03
2017-11-24T19:01:18.354Z,58.00
2017-11-24T19:03:48.540Z,53.07
2017-11-24T19:06:16.158Z,62.47
2017-11-24T19:08:44.432Z,54.00
2017-11-24T19:11:12.083Z,52.10
2017-11-24T19:13:39.659Z,46.23
2017-11-24T19:16:07.220Z,47.60
2017-11-24T19:18:34.837Z,54.90
2017-11-24T19:21:02.617Z,59.57
2017-11-24T19:23:30.201Z,52.50
2017-11-24T19:25:57.897Z,53.67
2017-11-24T19:28:25.489Z,54.47
2017-11-24T19:30:53.109Z,54.73
2017-11-24T19:33:20.751Z,59.00
2017-11-24T19:35:48.548Z,52.00
2017-11-24T19:38:16.204Z,51.77
2017-11-24T19:40:43.814Z,52.53
2017-11-24T19:43:11.639Z,42.67
2017-11-24T19:45:39.202Z,47.30
2017-11-24T19:48:08.523Z,50.43
2017-11-24T19:50:36.181Z,48.80
2017-11-24T19:53:03.776Z,50.90
2017-11-24T19:55:31.361Z,54.80
2017-11-24T19:57:58.915Z,69.97
2017-11-24T20:00:26.533Z,52.73
2017-11-24T20:02:54.098Z,72.57
2017-11-24T20:05:21.780Z,73.27
2017-11-24T20:07:49.350Z,97.93
2017-11-24T20:10:16.942Z,130.10
2017-11-24T20:12:44.614Z,86.63
2017-11-24T20:15:12.275Z,81.93
2017-11-24T20:17:39.845Z,65.93
2017-11-24T20:20:07.439Z,87.93
2017-11-24T20:22:35.020Z,65.50
2017-11-24T20:25:02.575Z,57.90
2017-11-24T20:27:30.184Z,68.33
2017-11-24T20:29:57.797Z,85.07
2017-11-24T20:32:25.386Z,97.40
2017-11-24T20:34:52.997Z,84.63
2017-11-24T20:37:20.568Z,105.67
2017-11-24T20:39:48.144Z,67.30
2017-11-24T20:42:15.730Z,58.43
2017-11-24T20:44:43.306Z,61.40
2017-11-24T20:47:10.907Z,66.53
2017-11-24T20:49:38.498Z,55.87
2017-11-24T20:52:06.064Z,135.53
2017-11-24T20:54:33.643Z,64.77
2017-11-24T20:57:01.241Z,48.00
2017-11-24T20:59:28.814Z,48.77
2017-11-24T21:01:56.428Z,49.53
2017-11-24T21:04:24.035Z,42.73
2017-11-24T21:06:51.610Z,36.63
2017-11-24T21:09:19.191Z,40.23
2017-11-24T21:11:46.777Z,30.10
2017-11-24T21:14:14.387Z,37.77
2017-11-24T21:16:42.167Z,36.87
2017-11-24T21:19:09.958Z,30.37
2017-11-24T21:21:37.514Z,38.33
2017-11-24T21:24:05.147Z,31.40
2017-11-24T21:26:32.802Z,27.33
2017-11-24T21:29:00.447Z,35.50
2017-11-24T21:34:18.476Z,46.30
2017-11-24T21:36:46.073Z,36.60
2017-11-24T21:39:13.674Z,40.33
2017-11-24T21:41:41.284Z,37.07
2017-11-24T21:44:08.845Z,35.00
2017-11-24T21:46:36.402Z,34.80
2017-11-24T21:49:04.055Z,33.80
2017-11-24T21:51:31.703Z,34.93
2017-11-24T21:53:59.245Z,35.33
2017-11-24T21:56:27.849Z,31.23
2017-11-24T21:58:55.448Z,33.30
2017-11-24T22:01:23.008Z,34.93
2017-11-24T22:03:50.600Z,35.23
2017-11-24T22:06:18.219Z,35.70
2017-11-24T22:08:45.773Z,54.23
2017-11-24T22:11:13.391Z,49.03
2017-11-24T22:13:40.960Z,34.07
2017-11-24T22:16:08.624Z,39.03
2017-11-24T22:18:36.360Z,50.37
2017-11-24T22:21:04.036Z,34.67
2017-11-24T22:23:31.604Z,33.73
2017-11-24T22:25:59.156Z,35.57
2017-11-24T22:28:26.770Z,41.67
2017-11-24T22:30:54.491Z,106.10
2017-11-24T22:33:22.162Z,176.60
2017-11-24T22:35:49.751Z,132.30
2017-11-24T22:38:17.405Z,122.20
2017-11-24T22:40:44.983Z,39.93
2017-11-24T22:43:12.811Z,53.93
2017-11-24T22:45:40.460Z,78.60
2017-11-24T22:48:08.059Z,50.77
2017-11-24T22:50:35.675Z,52.83
2017-11-24T22:53:03.360Z,134.47
2017-11-24T22:55:31.079Z,106.10
2017-11-24T22:57:58.691Z,65.47
2017-11-24T23:00:26.257Z,40.20
2017-11-24T23:02:53.856Z,75.70
2017-11-24T23:05:21.429Z,161.03
2017-11-24T23:07:50.599Z,91.60
2017-11-24T23:10:18.685Z,28.30
2017-11-24T23:12:46.269Z,115.10
2017-11-24T23:15:13.894Z,49.23
2017-11-24T23:17:41.510Z,42.00
2017-11-24T23:20:09.096Z,43.03
2017-11-24T23:22:36.667Z,104.23
2017-11-24T23:25:04.929Z,148.83
2017-11-24T23:27:32.484Z,81.83
2017-11-24T23:30:00.074Z,93.37
2017-11-24T23:32:27.724Z,151.63
2017-11-24T23:34:55.295Z,153.20
2017-11-24T23:37:22.856Z,71.00
2017-11-24T23:39:50.477Z,73.53
2017-11-24T23:42:18.104Z,49.70
2017-11-24T23:44:45.656Z,60.20
2017-11-24T23:47:13.251Z,35.27
2017-11-24T23:49:40.843Z,41.30
2017-11-24T23:52:08.399Z,33.00
2017-11-24T23:54:36.048Z,39.57
2017-11-24T23:57:03.603Z,33.20
2017-11-24T23:59:31.187Z,29.53
